createdAt,value
2018-08-22T00:01:17.077Z,12.23
2018-08-22T00:03:45.568Z,17.80
2018-08-22T00:06:14.636Z,9.03
2018-08-22T00:08:43.563Z,10.40
2018-08-22T00:11:14.009Z,10.87
2018-08-22T00:13:43.473Z,10.93
2018-08-22T00:16:11.860Z,14.47
2018-08-22T00:18:40.126Z,8.70
2018-08-22T00:21:08.502Z,8.53
2018-08-22T00:23:36.778Z,11.67
2018-08-22T00:26:05.270Z,9.83
2018-08-22T00:28:33.813Z,8.33
2018-08-22T00:31:02.263Z,7.50
2018-08-22T00:33:30.579Z,8.50
2018-08-22T00:35:58.890Z,7.13
2018-08-22T00:38:27.231Z,7.60
2018-08-22T00:40:55.555Z,8.77
2018-08-22T00:43:23.896Z,7.73
2018-08-22T00:45:52.212Z,10.10
2018-08-22T00:48:20.601Z,9.80
2018-08-22T00:50:48.982Z,9.10
2018-08-22T00:53:17.438Z,10.80
2018-08-22T00:55:45.916Z,9.73
2018-08-22T00:58:14.284Z,8.10
2018-08-22T01:00:42.581Z,8.80
2018-08-22T01:03:10.942Z,9.63
2018-08-22T01:05:39.230Z,11.80
2018-08-22T01:08:07.639Z,9.47
2018-08-22T01:10:36.000Z,8.20
2018-08-22T01:13:04.330Z,8.73
2018-08-22T01:15:32.661Z,8.70
2018-08-22T01:18:00.948Z,7.90
2018-08-22T01:20:29.387Z,7.13
2018-08-22T01:22:57.880Z,9.40
2018-08-22T01:25:26.270Z,9.33
2018-08-22T01:27:54.566Z,7.70
2018-08-22T01:30:23.059Z,15.27
2018-08-22T01:32:51.608Z,7.60
2018-08-22T01:35:20.156Z,7.57
2018-08-22T01:37:48.580Z,8.93
2018-08-22T01:40:17.198Z,7.13
2018-08-22T01:42:45.537Z,9.80
2018-08-22T01:45:13.883Z,11.30
2018-08-22T01:47:42.287Z,5.37
2018-08-22T01:50:10.628Z,6.20
2018-08-22T01:52:39.081Z,8.70
2018-08-22T01:55:07.459Z,9.20
2018-08-22T01:57:35.843Z,9.63
2018-08-22T02:00:04.505Z,7.33
2018-08-22T02:02:32.989Z,9.43
2018-08-22T02:05:01.423Z,10.20
2018-08-22T02:07:29.970Z,19.53
2018-08-22T02:09:58.351Z,9.50
2018-08-22T02:12:26.709Z,8.20
2018-08-22T02:14:55.145Z,11.10
2018-08-22T02:17:23.562Z,7.13
2018-08-22T02:19:51.974Z,10.77
2018-08-22T02:22:20.389Z,7.70
2018-08-22T02:24:48.714Z,7.10
2018-08-22T02:27:17.195Z,8.63
2018-08-22T02:29:45.504Z,8.37
2018-08-22T02:32:13.793Z,7.33
2018-08-22T02:34:42.166Z,8.17
2018-08-22T02:37:10.557Z,8.30
2018-08-22T02:39:38.888Z,11.83
2018-08-22T02:42:07.202Z,6.77
2018-08-22T02:44:35.646Z,6.73
2018-08-22T02:47:03.961Z,7.40
2018-08-22T02:49:32.342Z,10.53
2018-08-22T02:52:00.646Z,6.00
2018-08-22T02:54:28.943Z,6.90
2018-08-22T02:56:57.211Z,5.90
2018-08-22T02:59:25.510Z,7.80
2018-08-22T03:01:53.834Z,25.87
2018-08-22T03:04:22.119Z,7.93
2018-08-22T03:06:50.451Z,8.63
2018-08-22T03:09:18.775Z,5.50
2018-08-22T03:11:47.118Z,6.73
2018-08-22T03:14:15.433Z,17.53
2018-08-22T03:16:43.726Z,6.73
2018-08-22T03:19:12.034Z,7.10
2018-08-22T03:21:40.444Z,6.50
2018-08-22T03:24:08.756Z,5.00
2018-08-22T03:26:37.063Z,7.13
2018-08-22T03:29:05.367Z,6.23
2018-08-22T03:31:33.777Z,9.20
2018-08-22T03:34:02.131Z,7.30
2018-08-22T03:36:30.581Z,5.50
2018-08-22T03:38:58.883Z,6.90
2018-08-22T03:41:27.249Z,5.53
2018-08-22T03:43:55.550Z,9.87
2018-08-22T03:46:23.817Z,7.20
2018-08-22T03:48:52.187Z,9.70
2018-08-22T03:51:20.466Z,5.03
2018-08-22T03:53:48.727Z,7.10
2018-08-22T03:56:17.096Z,5.90
2018-08-22T03:58:45.377Z,9.23
2018-08-22T04:01:13.676Z,6.97
2018-08-22T04:03:42.009Z,6.77
2018-08-22T04:06:10.327Z,7.37
2018-08-22T04:08:38.636Z,9.07
2018-08-22T04:11:06.996Z,9.47
2018-08-22T04:13:35.321Z,6.40
2018-08-22T04:16:03.742Z,8.47
2018-08-22T04:18:32.029Z,6.53
2018-08-22T04:21:00.310Z,9.53
2018-08-22T04:23:28.652Z,8.37
2018-08-22T04:25:56.967Z,9.60
2018-08-22T04:28:25.236Z,10.93
2018-08-22T04:30:53.548Z,7.10
2018-08-22T04:33:21.883Z,11.73
2018-08-22T04:35:50.149Z,5.10
2018-08-22T04:38:18.443Z,10.53
2018-08-22T04:40:46.801Z,12.23
2018-08-22T04:43:15.076Z,6.47
2018-08-22T04:45:43.347Z,11.43
2018-08-22T04:48:11.608Z,10.50
2018-08-22T04:50:40.096Z,8.77
2018-08-22T04:53:08.595Z,9.50
2018-08-22T04:55:37.072Z,13.47
2018-08-22T04:58:05.606Z,14.20
2018-08-22T05:00:34.289Z,10.60
2018-08-22T05:03:02.773Z,19.40
2018-08-22T05:05:31.146Z,6.93
2018-08-22T05:07:59.946Z,14.40
2018-08-22T05:10:28.704Z,8.37
2018-08-22T05:12:57.387Z,9.77
2018-08-22T05:15:25.942Z,12.47
2018-08-22T05:17:54.872Z,8.83
2018-08-22T05:20:30.985Z,9.53
2018-08-22T05:23:06.734Z,16.20
2018-08-22T05:34:38.746Z,11.40
2018-08-22T05:37:07.018Z,10.10
2018-08-22T05:39:35.278Z,13.20
2018-08-22T05:42:03.542Z,7.20
2018-08-22T05:44:31.818Z,14.33
2018-08-22T05:47:00.165Z,16.17
2018-08-22T05:49:28.569Z,14.00
2018-08-22T05:51:56.960Z,15.80
2018-08-22T05:54:25.265Z,9.43
2018-08-22T05:56:53.564Z,10.70
2018-08-22T05:59:21.829Z,12.73
2018-08-22T06:01:50.139Z,12.73
2018-08-22T06:04:18.399Z,7.90
2018-08-22T06:06:46.740Z,12.53
2018-08-22T06:09:15.082Z,10.90
2018-08-22T06:11:44.217Z,23.87
2018-08-22T06:14:12.830Z,14.80
2018-08-22T06:16:41.103Z,5.93
2018-08-22T06:19:09.407Z,8.20
2018-08-22T06:21:37.654Z,8.40
2018-08-22T06:24:05.958Z,6.27
2018-08-22T06:26:34.281Z,11.33
2018-08-22T06:29:02.525Z,6.23
2018-08-22T06:31:30.790Z,4.70
2018-08-22T06:33:59.122Z,11.43
2018-08-22T06:36:27.455Z,9.63
2018-08-22T06:38:55.680Z,7.77
2018-08-22T06:41:23.954Z,4.40
2018-08-22T06:43:52.272Z,4.43
2018-08-22T06:46:20.554Z,6.00
2018-08-22T06:48:48.863Z,8.37
2018-08-22T06:51:18.684Z,9.80
2018-08-22T06:53:46.961Z,11.87
2018-08-22T06:56:15.181Z,11.60
2018-08-22T06:58:43.580Z,4.57
2018-08-22T07:01:11.824Z,8.10
2018-08-22T07:03:40.084Z,4.80
2018-08-22T07:06:08.355Z,15.30
2018-08-22T07:08:36.602Z,13.87
2018-08-22T07:11:04.940Z,5.33
2018-08-22T07:13:33.231Z,14.13
2018-08-22T07:16:01.598Z,4.07
2018-08-22T07:18:29.931Z,7.50
2018-08-22T07:20:58.308Z,8.00
2018-08-22T07:23:26.556Z,7.83
2018-08-22T07:25:54.939Z,5.77
2018-08-22T07:28:25.204Z,7.00
2018-08-22T07:30:53.559Z,12.60
2018-08-22T07:33:21.917Z,11.73
2018-08-22T07:35:50.269Z,12.83
2018-08-22T07:38:18.450Z,10.23
2018-08-22T07:40:46.766Z,7.37
2018-08-22T07:43:15.130Z,7.83
2018-08-22T07:45:43.660Z,12.50
2018-08-22T07:48:11.926Z,6.17
2018-08-22T07:50:40.302Z,15.57
2018-08-22T07:53:08.542Z,9.83
2018-08-22T07:55:38.977Z,5.90
2018-08-22T07:58:07.336Z,10.10
2018-08-22T08:00:35.622Z,8.33
2018-08-22T08:03:03.919Z,15.90
2018-08-22T08:05:32.299Z,22.13
2018-08-22T08:08:00.507Z,8.70
2018-08-22T08:10:32.787Z,9.53
2018-08-22T08:13:01.411Z,13.17
2018-08-22T08:15:29.753Z,9.63
2018-08-22T08:17:58.391Z,7.43
2018-08-22T08:20:26.668Z,11.57
2018-08-22T08:22:54.954Z,11.53
2018-08-22T08:25:23.202Z,11.57
2018-08-22T08:27:51.465Z,22.30
2018-08-22T08:30:20.506Z,6.73
2018-08-22T08:32:48.811Z,16.10
2018-08-22T08:35:17.048Z,10.07
2018-08-22T08:37:45.346Z,8.23
2018-08-22T08:40:13.618Z,12.80
2018-08-22T08:42:41.951Z,11.13
2018-08-22T08:45:12.041Z,7.87
2018-08-22T08:47:40.354Z,9.07
2018-08-22T08:56:01.869Z,8.00
2018-08-22T08:58:35.803Z,13.30
2018-08-22T14:04:39.766Z,12.50
2018-08-22T14:07:09.529Z,15.13
2018-08-22T14:09:39.513Z,14.93
2018-08-22T14:58:57.922Z,16.43
2018-08-22T15:04:19.649Z,10.00
2018-08-22T15:19:02.514Z,13.70
2018-08-22T15:21:52.940Z,13.77
2018-08-22T15:24:24.496Z,8.97
2018-08-22T15:27:39.363Z,11.37
2018-08-22T15:33:55.674Z,13.77
2018-08-22T15:39:18.730Z,11.77
2018-08-22T16:20:35.686Z,11.77
2018-08-22T16:23:05.238Z,25.33
2018-08-22T16:25:40.099Z,14.67
2018-08-22T16:28:08.534Z,14.80
2018-08-22T16:30:36.858Z,13.90
2018-08-22T16:33:05.230Z,12.10
2018-08-22T16:35:33.578Z,14.17
2018-08-22T16:38:04.014Z,14.03
2018-08-22T16:40:36.615Z,17.50
2018-08-22T16:43:05.048Z,12.77
2018-08-22T16:45:40.276Z,15.20
2018-08-22T16:48:08.713Z,16.07
2018-08-22T16:50:37.061Z,14.37
2018-08-22T16:53:05.421Z,14.93
2018-08-22T16:55:33.734Z,16.87
2018-08-22T16:58:02.059Z,18.90
2018-08-22T17:00:37.517Z,14.47
2018-08-22T17:03:07.370Z,22.03
2018-08-22T17:05:35.945Z,11.27
2018-08-22T17:08:04.635Z,19.33
2018-08-22T17:10:46.599Z,16.70
2018-08-22T17:13:14.962Z,20.13
2018-08-22T17:15:43.253Z,16.13
2018-08-22T17:18:11.667Z,19.17
2018-08-22T17:20:40.149Z,15.80
2018-08-22T17:23:08.523Z,18.70
2018-08-22T17:25:36.882Z,23.70
2018-08-22T17:28:05.256Z,23.23
2018-08-22T17:30:39.228Z,23.57
2018-08-22T17:33:10.013Z,26.90
2018-08-22T17:35:42.528Z,24.67
2018-08-22T17:38:12.081Z,28.27
2018-08-22T17:40:41.899Z,19.80
2018-08-22T17:43:10.402Z,25.10
2018-08-22T17:45:40.690Z,17.60
2018-08-22T17:48:09.879Z,20.50
2018-08-22T17:50:38.411Z,21.43
2018-08-22T17:53:08.666Z,15.53
2018-08-22T17:55:37.829Z,22.70
2018-08-22T17:58:06.440Z,22.37
2018-08-22T18:00:37.304Z,20.33
2018-08-22T18:03:05.753Z,28.20
2018-08-22T18:05:35.576Z,19.30
2018-08-22T18:08:06.195Z,26.17
2018-08-22T18:10:36.816Z,24.70
2018-08-22T18:13:09.446Z,18.60
2018-08-22T18:15:37.802Z,20.30
2018-08-22T18:18:06.459Z,24.33
2018-08-22T18:20:38.658Z,13.73
2018-08-22T18:23:06.939Z,21.00
2018-08-22T18:25:35.662Z,18.17
2018-08-22T18:28:05.995Z,18.17
2018-08-22T18:30:34.623Z,16.03
2018-08-22T18:33:03.066Z,19.73
2018-08-22T18:35:31.498Z,22.23
2018-08-22T18:37:59.958Z,17.77
2018-08-22T18:40:29.493Z,20.03
2018-08-22T18:43:00.912Z,15.73
2018-08-22T18:45:29.510Z,15.33
2018-08-22T18:47:57.970Z,13.43
2018-08-22T18:50:26.812Z,17.37
2018-08-22T18:52:57.227Z,20.20
2018-08-22T18:55:33.619Z,15.57
2018-08-22T18:58:04.404Z,19.63
2018-08-22T19:00:36.829Z,29.60
2018-08-22T19:03:05.198Z,22.73
2018-08-22T19:05:35.574Z,21.97
2018-08-22T19:08:11.842Z,31.03
2018-08-22T19:10:42.333Z,22.00
2018-08-22T19:13:20.766Z,18.83
2018-08-22T19:15:50.954Z,31.47
2018-08-22T19:18:19.472Z,30.23
2018-08-22T19:21:03.860Z,33.87
2018-08-22T19:23:32.375Z,20.70
2018-08-22T19:26:01.827Z,24.67
2018-08-22T19:28:30.091Z,20.77
2018-08-22T19:30:58.396Z,21.93
2018-08-22T19:33:27.925Z,20.17
2018-08-22T19:35:56.419Z,26.10
2018-08-22T19:38:27.770Z,27.37
2018-08-22T19:40:56.702Z,25.00
2018-08-22T19:43:25.151Z,24.67
2018-08-22T19:45:53.435Z,29.57
2018-08-22T19:48:21.896Z,19.80
2018-08-22T19:50:50.184Z,19.87
2018-08-22T19:53:18.616Z,25.20
2018-08-22T19:55:46.900Z,19.83
2018-08-22T19:58:15.255Z,20.60
2018-08-22T20:00:43.545Z,21.13
2018-08-22T20:03:14.731Z,22.20
2018-08-22T20:05:52.943Z,18.60
2018-08-22T20:08:25.230Z,22.83
2018-08-22T20:10:53.545Z,22.37
2018-08-22T20:13:22.019Z,24.13
2018-08-22T20:15:50.374Z,21.37
2018-08-22T20:18:18.970Z,18.43
2018-08-22T20:20:47.294Z,19.10
2018-08-22T20:23:15.660Z,16.87
2018-08-22T20:25:43.886Z,18.40
2018-08-22T20:28:12.495Z,25.80
2018-08-22T20:30:41.575Z,25.43
2018-08-22T20:33:11.025Z,28.30
2018-08-22T20:35:41.923Z,16.20
2018-08-22T20:38:11.974Z,30.90
2018-08-22T20:40:41.386Z,18.40
2018-08-22T20:43:16.391Z,22.10
2018-08-22T20:45:44.691Z,19.87
2018-08-22T20:48:14.095Z,18.03
2018-08-22T20:50:44.036Z,19.27
2018-08-22T20:53:15.170Z,21.47
2018-08-22T20:55:43.745Z,24.60
2018-08-22T20:58:17.655Z,16.37
2018-08-22T21:00:46.510Z,23.27
2018-08-22T21:03:17.650Z,18.93
2018-08-22T21:05:45.995Z,14.80
2018-08-22T21:08:14.465Z,18.83
2018-08-22T21:10:42.826Z,24.03
2018-08-22T21:13:16.235Z,15.63
2018-08-22T21:15:44.484Z,25.40
2018-08-22T21:18:12.789Z,25.70
2018-08-22T21:20:41.098Z,17.80
2018-08-22T21:23:09.430Z,17.87
2018-08-22T21:25:37.683Z,19.33
2018-08-22T21:28:05.930Z,26.30
2018-08-22T21:30:35.802Z,25.57
2018-08-22T21:33:04.114Z,22.30
2018-08-22T21:35:38.840Z,20.50
2018-08-22T21:38:13.187Z,26.07
2018-08-22T21:40:41.637Z,29.77
2018-08-22T21:43:12.639Z,35.50
2018-08-22T21:45:41.006Z,36.30
2018-08-22T21:48:25.437Z,35.57
2018-08-22T21:50:53.893Z,39.83
2018-08-22T21:53:22.216Z,44.70
2018-08-22T21:55:51.684Z,39.50
2018-08-22T21:58:19.957Z,48.60
2018-08-22T22:00:49.219Z,40.57
2018-08-22T22:03:22.769Z,44.13
2018-08-22T22:06:03.725Z,42.43
2018-08-22T22:08:32.308Z,43.30
2018-08-22T22:11:03.026Z,37.13
2018-08-22T22:13:31.514Z,44.40
2018-08-22T22:16:01.110Z,42.13
2018-08-22T22:18:32.176Z,49.23
2018-08-22T22:21:11.077Z,52.00
2018-08-22T22:23:44.630Z,47.13
2018-08-22T22:26:14.155Z,49.43
2018-08-22T22:28:50.245Z,52.73
2018-08-22T22:31:20.548Z,50.90
2018-08-22T22:33:57.454Z,52.47
2018-08-22T22:36:26.517Z,58.63
2018-08-22T22:38:55.371Z,47.27
2018-08-22T22:41:30.383Z,59.53
2018-08-22T22:43:59.015Z,61.13
2018-08-22T22:46:27.978Z,48.03
2018-08-22T22:49:00.894Z,50.97
2018-08-22T22:51:29.419Z,48.10
2018-08-22T22:54:01.744Z,60.33
2018-08-22T22:56:30.752Z,53.43
2018-08-22T22:59:09.476Z,52.37
2018-08-22T23:01:41.935Z,55.70
2018-08-22T23:04:18.924Z,53.53
2018-08-22T23:07:04.839Z,57.97
2018-08-22T23:09:44.807Z,61.93
2018-08-22T23:12:13.303Z,58.87
2018-08-22T23:14:41.893Z,56.13
2018-08-22T23:17:11.687Z,60.97
2018-08-22T23:22:37.061Z,59.30
2018-08-22T23:25:05.839Z,58.07
2018-08-22T23:27:35.142Z,69.10
2018-08-22T23:30:05.595Z,75.90
2018-08-22T23:32:53.136Z,63.80
2018-08-22T23:35:41.766Z,68.60
2018-08-22T23:38:43.564Z,70.07
2018-08-22T23:41:13.266Z,69.90
2018-08-22T23:44:08.178Z,81.63
2018-08-22T23:46:39.149Z,68.17
2018-08-22T23:52:26.261Z,79.80
2018-08-22T23:54:56.101Z,75.27
2018-08-22T23:57:24.752Z,71.40
2018-08-22T23:59:54.099Z,82.17
